sensor_id;sensor_type;location;lat;lon;timestamp;temperature;humidity
23715;DHT22;12036;50.858;4.472;2023-06-22T00:00:46;21.10;99.90
23715;DHT22;12036;50.858;4.472;2023-06-22T00:03:12;21.10;99.90
23715;DHT22;12036;50.858;4.472;2023-06-22T00:05:38;21.00;99.90
23715;DHT22;12036;50.858;4.472;2023-06-22T00:08:04;21.00;99.90
23715;DHT22;12036;50.858;4.472;2023-06-22T00:10:32;21.00;99.90
23715;DHT22;12036;50.858;4.472;2023-06-22T00:12:58;20.90;99.90
23715;DHT22;12036;50.858;4.472;2023-06-22T00:15:23;21.00;99.90
23715;DHT22;12036;50.858;4.472;2023-06-22T00:17:51;21.00;99.90
23715;DHT22;12036;50.858;4.472;2023-06-22T00:20:16;20.90;99.90
23715;DHT22;12036;50.858;4.472;2023-06-22T00:22:44;20.90;99.90
23715;DHT22;12036;50.858;4.472;2023-06-22T00:25:11;20.90;99.90
23715;DHT22;12036;50.858;4.472;2023-06-22T00:27:37;20.90;99.90
23715;DHT22;12036;50.858;4.472;2023-06-22T00:30:03;20.80;99.90
23715;DHT22;12036;50.858;4.472;2023-06-22T00:32:29;20.80;99.90
23715;DHT22;12036;50.858;4.472;2023-06-22T00:34:55;20.70;99.90
23715;DHT22;12036;50.858;4.472;2023-06-22T00:37:20;20.70;99.90
23715;DHT22;12036;50.858;4.472;2023-06-22T00:39:51;20.70;99.90
23715;DHT22;12036;50.858;4.472;2023-06-22T00:42:17;20.70;99.90
23715;DHT22;12036;50.858;4.472;2023-06-22T00:44:43;20.80;99.90
23715;DHT22;12036;50.858;4.472;2023-06-22T00:47:11;20.80;99.90
23715;DHT22;12036;50.858;4.472;2023-06-22T00:49:38;20.80;99.90
23715;DHT22;12036;50.858;4.472;2023-06-22T00:52:05;20.80;99.90
23715;DHT22;12036;50.858;4.472;2023-06-22T00:54:35;20.80;99.90
23715;DHT22;12036;50.858;4.472;2023-06-22T00:57:02;20.80;99.90
23715;DHT22;12036;50.858;4.472;2023-06-22T00:59:28;20.80;99.90
23715;DHT22;12036;50.858;4.472;2023-06-22T01:01:54;20.80;99.90
23715;DHT22;12036;50.858;4.472;2023-06-22T01:04:21;20.80;99.90
23715;DHT22;12036;50.858;4.472;2023-06-22T01:07:07;20.80;99.90
23715;DHT22;12036;50.858;4.472;2023-06-22T01:12:52;20.80;99.90
23715;DHT22;12036;50.858;4.472;2023-06-22T01:15:28;20.80;99.90
23715;DHT22;12036;50.858;4.472;2023-06-22T01:17:56;20.80;99.90
23715;DHT22;12036;50.858;4.472;2023-06-22T01:20:25;20.80;99.90
23715;DHT22;12036;50.858;4.472;2023-06-22T01:26:06;20.70;99.90
23715;DHT22;12036;50.858;4.472;2023-06-22T01:28:48;20.70;99.90
23715;DHT22;12036;50.858;4.472;2023-06-22T01:31:23;20.60;99.90
23715;DHT22;12036;50.858;4.472;2023-06-22T01:34:01;20.50;99.90
23715;DHT22;12036;50.858;4.472;2023-06-22T01:36:29;20.50;99.90
23715;DHT22;12036;50.858;4.472;2023-06-22T01:38:57;20.50;99.90
23715;DHT22;12036;50.858;4.472;2023-06-22T01:41:25;20.50;99.90
23715;DHT22;12036;50.858;4.472;2023-06-22T01:43:52;20.50;99.90
23715;DHT22;12036;50.858;4.472;2023-06-22T01:46:18;20.50;99.90
23715;DHT22;12036;50.858;4.472;2023-06-22T01:48:47;20.40;99.90
23715;DHT22;12036;50.858;4.472;2023-06-22T01:51:14;20.40;99.90
23715;DHT22;12036;50.858;4.472;2023-06-22T01:53:40;20.30;99.90
23715;DHT22;12036;50.858;4.472;2023-06-22T01:56:05;20.30;99.90
23715;DHT22;12036;50.858;4.472;2023-06-22T01:58:32;20.20;99.90
23715;DHT22;12036;50.858;4.472;2023-06-22T02:01:12;20.10;99.90
23715;DHT22;12036;50.858;4.472;2023-06-22T02:03:46;20.10;99.90
23715;DHT22;12036;50.858;4.472;2023-06-22T02:06:25;20.10;99.90
23715;DHT22;12036;50.858;4.472;2023-06-22T02:08:59;20.00;99.90
23715;DHT22;12036;50.858;4.472;2023-06-22T02:11:27;20.00;99.90
23715;DHT22;12036;50.858;4.472;2023-06-22T02:13:53;19.90;99.90
23715;DHT22;12036;50.858;4.472;2023-06-22T02:16:20;19.90;99.90
23715;DHT22;12036;50.858;4.472;2023-06-22T02:18:50;19.80;99.90
23715;DHT22;12036;50.858;4.472;2023-06-22T02:21:17;19.80;99.90
23715;DHT22;12036;50.858;4.472;2023-06-22T02:23:43;19.80;99.90
23715;DHT22;12036;50.858;4.472;2023-06-22T02:26:08;19.80;99.90
23715;DHT22;12036;50.858;4.472;2023-06-22T02:28:34;19.80;99.90
23715;DHT22;12036;50.858;4.472;2023-06-22T02:31:00;19.80;99.90
23715;DHT22;12036;50.858;4.472;2023-06-22T02:33:25;19.70;99.90
23715;DHT22;12036;50.858;4.472;2023-06-22T02:35:51;19.70;99.90
23715;DHT22;12036;50.858;4.472;2023-06-22T02:38:16;19.60;99.90
23715;DHT22;12036;50.858;4.472;2023-06-22T02:40:43;19.60;99.90
23715;DHT22;12036;50.858;4.472;2023-06-22T02:43:08;19.60;99.90
23715;DHT22;12036;50.858;4.472;2023-06-22T02:45:34;19.50;99.90
23715;DHT22;12036;50.858;4.472;2023-06-22T02:47:59;19.50;99.90
23715;DHT22;12036;50.858;4.472;2023-06-22T02:50:25;19.50;99.90
23715;DHT22;12036;50.858;4.472;2023-06-22T02:52:51;19.40;99.90
23715;DHT22;12036;50.858;4.472;2023-06-22T02:55:16;19.40;99.90
23715;DHT22;12036;50.858;4.472;2023-06-22T02:57:42;19.40;99.90
23715;DHT22;12036;50.858;4.472;2023-06-22T03:00:10;19.40;99.90
23715;DHT22;12036;50.858;4.472;2023-06-22T03:02:44;19.30;99.90
23715;DHT22;12036;50.858;4.472;2023-06-22T03:05:10;19.30;99.90
23715;DHT22;12036;50.858;4.472;2023-06-22T03:07:42;19.30;99.90
23715;DHT22;12036;50.858;4.472;2023-06-22T03:10:13;19.20;99.90
23715;DHT22;12036;50.858;4.472;2023-06-22T03:12:40;19.20;99.90
23715;DHT22;12036;50.858;4.472;2023-06-22T03:15:07;19.10;99.90
23715;DHT22;12036;50.858;4.472;2023-06-22T03:17:34;19.10;99.90
23715;DHT22;12036;50.858;4.472;2023-06-22T03:20:00;19.10;99.90
23715;DHT22;12036;50.858;4.472;2023-06-22T03:22:26;19.10;99.90
23715;DHT22;12036;50.858;4.472;2023-06-22T03:24:52;19.10;99.90
23715;DHT22;12036;50.858;4.472;2023-06-22T03:27:17;19.00;99.90
23715;DHT22;12036;50.858;4.472;2023-06-22T03:29:44;19.00;99.90
23715;DHT22;12036;50.858;4.472;2023-06-22T03:32:10;19.00;99.90
23715;DHT22;12036;50.858;4.472;2023-06-22T03:34:35;19.00;99.90
23715;DHT22;12036;50.858;4.472;2023-06-22T03:37:01;19.00;99.90
23715;DHT22;12036;50.858;4.472;2023-06-22T03:39:28;18.90;99.90
23715;DHT22;12036;50.858;4.472;2023-06-22T03:41:54;19.00;99.90
23715;DHT22;12036;50.858;4.472;2023-06-22T03:44:19;19.00;99.90
23715;DHT22;12036;50.858;4.472;2023-06-22T03:46:45;19.00;99.90
23715;DHT22;12036;50.858;4.472;2023-06-22T03:49:10;19.00;99.90
23715;DHT22;12036;50.858;4.472;2023-06-22T03:51:36;19.10;99.90
23715;DHT22;12036;50.858;4.472;2023-06-22T03:54:02;19.10;99.90
23715;DHT22;12036;50.858;4.472;2023-06-22T03:56:27;19.10;99.90
23715;DHT22;12036;50.858;4.472;2023-06-22T03:58:53;19.10;99.90
23715;DHT22;12036;50.858;4.472;2023-06-22T04:01:19;19.20;99.90
23715;DHT22;12036;50.858;4.472;2023-06-22T04:03:44;19.20;99.90
23715;DHT22;12036;50.858;4.472;2023-06-22T04:06:10;19.20;99.90
23715;DHT22;12036;50.858;4.472;2023-06-22T04:08:35;19.30;99.90
23715;DHT22;12036;50.858;4.472;2023-06-22T04:11:01;19.30;99.90
23715;DHT22;12036;50.858;4.472;2023-06-22T04:13:27;19.30;99.90
23715;DHT22;12036;50.858;4.472;2023-06-22T04:15:52;19.40;99.90
23715;DHT22;12036;50.858;4.472;2023-06-22T04:18:18;19.40;99.90
23715;DHT22;12036;50.858;4.472;2023-06-22T04:20:44;19.50;99.90
23715;DHT22;12036;50.858;4.472;2023-06-22T04:23:12;19.50;99.90
23715;DHT22;12036;50.858;4.472;2023-06-22T04:25:38;19.50;99.90
23715;DHT22;12036;50.858;4.472;2023-06-22T04:28:04;19.50;99.90
23715;DHT22;12036;50.858;4.472;2023-06-22T04:30:30;19.50;99.90
23715;DHT22;12036;50.858;4.472;2023-06-22T04:32:57;19.50;99.90
23715;DHT22;12036;50.858;4.472;2023-06-22T04:35:23;19.40;99.90
23715;DHT22;12036;50.858;4.472;2023-06-22T04:37:49;19.40;99.90
23715;DHT22;12036;50.858;4.472;2023-06-22T04:40:15;19.40;99.90
23715;DHT22;12036;50.858;4.472;2023-06-22T04:42:41;19.50;99.90
23715;DHT22;12036;50.858;4.472;2023-06-22T04:45:17;19.50;99.90
23715;DHT22;12036;50.858;4.472;2023-06-22T04:47:43;19.50;99.90
23715;DHT22;12036;50.858;4.472;2023-06-22T04:50:13;19.40;99.90
23715;DHT22;12036;50.858;4.472;2023-06-22T04:52:39;19.40;99.90
23715;DHT22;12036;50.858;4.472;2023-06-22T04:55:05;19.50;99.90
23715;DHT22;12036;50.858;4.472;2023-06-22T04:57:31;19.50;99.90
23715;DHT22;12036;50.858;4.472;2023-06-22T05:00:00;19.60;99.90
23715;DHT22;12036;50.858;4.472;2023-06-22T05:02:46;19.60;99.90
23715;DHT22;12036;50.858;4.472;2023-06-22T05:05:15;19.70;99.90
23715;DHT22;12036;50.858;4.472;2023-06-22T05:07:46;19.70;99.90
23715;DHT22;12036;50.858;4.472;2023-06-22T05:10:14;19.70;99.90
23715;DHT22;12036;50.858;4.472;2023-06-22T05:12:40;19.70;99.90
23715;DHT22;12036;50.858;4.472;2023-06-22T05:15:07;19.70;99.90
23715;DHT22;12036;50.858;4.472;2023-06-22T05:17:34;19.70;99.90
23715;DHT22;12036;50.858;4.472;2023-06-22T05:20:00;19.80;99.90
23715;DHT22;12036;50.858;4.472;2023-06-22T05:22:25;19.70;99.90
23715;DHT22;12036;50.858;4.472;2023-06-22T05:24:51;19.60;99.90
23715;DHT22;12036;50.858;4.472;2023-06-22T05:27:17;19.50;99.90
23715;DHT22;12036;50.858;4.472;2023-06-22T05:29:43;19.50;99.90
23715;DHT22;12036;50.858;4.472;2023-06-22T05:32:08;19.50;99.90
23715;DHT22;12036;50.858;4.472;2023-06-22T05:34:34;19.50;99.90
23715;DHT22;12036;50.858;4.472;2023-06-22T05:37:00;19.50;99.90
23715;DHT22;12036;50.858;4.472;2023-06-22T05:39:25;19.40;99.90
23715;DHT22;12036;50.858;4.472;2023-06-22T05:41:51;19.30;99.90
23715;DHT22;12036;50.858;4.472;2023-06-22T05:44:18;19.30;99.90
23715;DHT22;12036;50.858;4.472;2023-06-22T05:46:44;19.30;99.90
23715;DHT22;12036;50.858;4.472;2023-06-22T05:49:15;19.20;99.90
23715;DHT22;12036;50.858;4.472;2023-06-22T05:51:41;19.30;99.90
23715;DHT22;12036;50.858;4.472;2023-06-22T05:54:07;19.30;99.90
23715;DHT22;12036;50.858;4.472;2023-06-22T05:56:34;19.30;99.90
23715;DHT22;12036;50.858;4.472;2023-06-22T05:58:59;19.40;99.90
23715;DHT22;12036;50.858;4.472;2023-06-22T06:01:25;19.40;99.90
23715;DHT22;12036;50.858;4.472;2023-06-22T06:03:51;19.50;99.90
23715;DHT22;12036;50.858;4.472;2023-06-22T06:06:18;19.50;99.90
23715;DHT22;12036;50.858;4.472;2023-06-22T06:08:46;19.60;99.90
23715;DHT22;12036;50.858;4.472;2023-06-22T06:11:12;19.80;99.90
23715;DHT22;12036;50.858;4.472;2023-06-22T06:13:37;19.90;99.90
23715;DHT22;12036;50.858;4.472;2023-06-22T06:16:03;20.00;99.90
23715;DHT22;12036;50.858;4.472;2023-06-22T06:18:29;20.20;99.90
23715;DHT22;12036;50.858;4.472;2023-06-22T06:20:54;20.30;99.90
23715;DHT22;12036;50.858;4.472;2023-06-22T06:23:20;20.50;99.90
23715;DHT22;12036;50.858;4.472;2023-06-22T06:25:46;20.60;99.90
23715;DHT22;12036;50.858;4.472;2023-06-22T06:28:11;20.70;99.90
23715;DHT22;12036;50.858;4.472;2023-06-22T06:30:37;20.80;99.90
23715;DHT22;12036;50.858;4.472;2023-06-22T06:33:03;20.90;99.90
23715;DHT22;12036;50.858;4.472;2023-06-22T06:35:34;21.00;99.90
23715;DHT22;12036;50.858;4.472;2023-06-22T06:38:00;21.10;99.90
23715;DHT22;12036;50.858;4.472;2023-06-22T06:40:25;21.20;99.90
23715;DHT22;12036;50.858;4.472;2023-06-22T06:42:51;21.40;99.90
23715;DHT22;12036;50.858;4.472;2023-06-22T06:45:18;21.50;99.90
23715;DHT22;12036;50.858;4.472;2023-06-22T06:47:44;21.50;99.90
23715;DHT22;12036;50.858;4.472;2023-06-22T06:50:11;21.50;99.90
23715;DHT22;12036;50.858;4.472;2023-06-22T06:52:37;21.60;99.90
23715;DHT22;12036;50.858;4.472;2023-06-22T06:55:03;21.70;99.90
23715;DHT22;12036;50.858;4.472;2023-06-22T06:57:40;21.80;99.90
23715;DHT22;12036;50.858;4.472;2023-06-22T07:00:08;21.80;99.90
23715;DHT22;12036;50.858;4.472;2023-06-22T07:02:38;21.90;99.90
23715;DHT22;12036;50.858;4.472;2023-06-22T07:05:05;21.90;99.90
23715;DHT22;12036;50.858;4.472;2023-06-22T07:07:31;21.90;99.90
23715;DHT22;12036;50.858;4.472;2023-06-22T07:09:57;22.00;99.90
23715;DHT22;12036;50.858;4.472;2023-06-22T07:12:22;21.90;99.90
23715;DHT22;12036;50.858;4.472;2023-06-22T07:14:48;22.00;99.90
23715;DHT22;12036;50.858;4.472;2023-06-22T07:17:14;22.00;99.90
23715;DHT22;12036;50.858;4.472;2023-06-22T07:19:40;22.10;99.90
23715;DHT22;12036;50.858;4.472;2023-06-22T07:22:07;22.20;99.90
23715;DHT22;12036;50.858;4.472;2023-06-22T07:24:33;22.20;99.90
23715;DHT22;12036;50.858;4.472;2023-06-22T07:27:05;22.30;99.90
23715;DHT22;12036;50.858;4.472;2023-06-22T07:29:32;22.40;99.90
23715;DHT22;12036;50.858;4.472;2023-06-22T07:31:58;22.40;99.90
23715;DHT22;12036;50.858;4.472;2023-06-22T07:34:26;22.50;99.90
23715;DHT22;12036;50.858;4.472;2023-06-22T07:36:51;22.70;99.90
23715;DHT22;12036;50.858;4.472;2023-06-22T07:39:17;22.80;99.90
23715;DHT22;12036;50.858;4.472;2023-06-22T07:41:43;22.70;99.90
23715;DHT22;12036;50.858;4.472;2023-06-22T07:44:08;22.40;99.90
23715;DHT22;12036;50.858;4.472;2023-06-22T07:46:34;22.40;99.90
23715;DHT22;12036;50.858;4.472;2023-06-22T07:49:00;22.40;99.90
23715;DHT22;12036;50.858;4.472;2023-06-22T07:51:26;22.20;99.90
23715;DHT22;12036;50.858;4.472;2023-06-22T07:53:52;22.10;99.90
23715;DHT22;12036;50.858;4.472;2023-06-22T07:56:18;22.10;99.90
23715;DHT22;12036;50.858;4.472;2023-06-22T07:58:47;22.00;99.90
23715;DHT22;12036;50.858;4.472;2023-06-22T08:01:14;22.00;99.90
23715;DHT22;12036;50.858;4.472;2023-06-22T08:03:40;21.90;99.90
23715;DHT22;12036;50.858;4.472;2023-06-22T08:06:07;22.00;99.90
23715;DHT22;12036;50.858;4.472;2023-06-22T08:08:37;21.90;99.90
23715;DHT22;12036;50.858;4.472;2023-06-22T08:11:02;21.80;99.90
23715;DHT22;12036;50.858;4.472;2023-06-22T08:13:28;21.80;99.90
23715;DHT22;12036;50.858;4.472;2023-06-22T08:15:54;21.70;99.90
23715;DHT22;12036;50.858;4.472;2023-06-22T08:18:19;21.70;99.90
23715;DHT22;12036;50.858;4.472;2023-06-22T08:20:45;21.70;99.90
23715;DHT22;12036;50.858;4.472;2023-06-22T08:23:11;21.70;99.90
23715;DHT22;12036;50.858;4.472;2023-06-22T08:25:36;21.60;99.90
23715;DHT22;12036;50.858;4.472;2023-06-22T08:28:03;21.50;99.90
23715;DHT22;12036;50.858;4.472;2023-06-22T08:30:29;21.40;99.90
23715;DHT22;12036;50.858;4.472;2023-06-22T08:32:55;21.40;99.90
23715;DHT22;12036;50.858;4.472;2023-06-22T08:35:22;21.40;99.90
23715;DHT22;12036;50.858;4.472;2023-06-22T08:37:48;21.40;99.90
23715;DHT22;12036;50.858;4.472;2023-06-22T08:40:19;21.40;99.90
23715;DHT22;12036;50.858;4.472;2023-06-22T08:42:48;21.40;99.90
23715;DHT22;12036;50.858;4.472;2023-06-22T08:45:15;21.40;99.90
23715;DHT22;12036;50.858;4.472;2023-06-22T08:47:41;21.40;99.90
23715;DHT22;12036;50.858;4.472;2023-06-22T08:50:08;21.30;99.90
23715;DHT22;12036;50.858;4.472;2023-06-22T08:52:34;21.20;99.90
23715;DHT22;12036;50.858;4.472;2023-06-22T08:55:00;21.30;99.90
23715;DHT22;12036;50.858;4.472;2023-06-22T08:57:29;21.20;99.90
23715;DHT22;12036;50.858;4.472;2023-06-22T08:59:56;21.20;99.90
23715;DHT22;12036;50.858;4.472;2023-06-22T09:02:24;21.20;99.90
23715;DHT22;12036;50.858;4.472;2023-06-22T09:04:50;21.20;99.90
23715;DHT22;12036;50.858;4.472;2023-06-22T09:07:24;21.30;99.90
23715;DHT22;12036;50.858;4.472;2023-06-22T09:09:50;21.30;99.90
23715;DHT22;12036;50.858;4.472;2023-06-22T09:12:17;21.20;99.90
23715;DHT22;12036;50.858;4.472;2023-06-22T09:14:45;21.20;99.90
23715;DHT22;12036;50.858;4.472;2023-06-22T09:17:12;21.20;99.90
23715;DHT22;12036;50.858;4.472;2023-06-22T09:19:38;21.10;99.90
23715;DHT22;12036;50.858;4.472;2023-06-22T09:22:04;20.90;99.90
23715;DHT22;12036;50.858;4.472;2023-06-22T09:24:32;20.80;99.90
23715;DHT22;12036;50.858;4.472;2023-06-22T09:26:57;20.70;99.90
23715;DHT22;12036;50.858;4.472;2023-06-22T09:29:23;20.60;99.90
23715;DHT22;12036;50.858;4.472;2023-06-22T09:31:49;20.50;99.90
23715;DHT22;12036;50.858;4.472;2023-06-22T09:34:14;20.30;99.90
23715;DHT22;12036;50.858;4.472;2023-06-22T09:36:41;19.90;99.90
23715;DHT22;12036;50.858;4.472;2023-06-22T09:39:06;19.60;99.90
23715;DHT22;12036;50.858;4.472;2023-06-22T09:41:32;19.40;99.90
23715;DHT22;12036;50.858;4.472;2023-06-22T09:43:58;19.20;99.90
23715;DHT22;12036;50.858;4.472;2023-06-22T09:46:23;19.00;99.90
23715;DHT22;12036;50.858;4.472;2023-06-22T09:48:52;18.80;99.90
23715;DHT22;12036;50.858;4.472;2023-06-22T09:51:17;18.60;99.90
23715;DHT22;12036;50.858;4.472;2023-06-22T09:53:45;18.50;99.90
23715;DHT22;12036;50.858;4.472;2023-06-22T09:56:10;18.40;99.90
23715;DHT22;12036;50.858;4.472;2023-06-22T09:58:43;18.30;99.90
23715;DHT22;12036;50.858;4.472;2023-06-22T10:01:09;18.30;99.90
23715;DHT22;12036;50.858;4.472;2023-06-22T10:03:36;18.20;99.90
23715;DHT22;12036;50.858;4.472;2023-06-22T10:06:02;18.00;99.90
23715;DHT22;12036;50.858;4.472;2023-06-22T10:08:28;18.00;99.90
23715;DHT22;12036;50.858;4.472;2023-06-22T10:10:53;18.00;99.90
23715;DHT22;12036;50.858;4.472;2023-06-22T10:13:19;17.90;99.90
23715;DHT22;12036;50.858;4.472;2023-06-22T10:15:45;17.90;99.90
23715;DHT22;12036;50.858;4.472;2023-06-22T10:18:15;17.90;99.90
23715;DHT22;12036;50.858;4.472;2023-06-22T10:20:42;17.80;99.90
23715;DHT22;12036;50.858;4.472;2023-06-22T10:23:07;17.80;99.90
23715;DHT22;12036;50.858;4.472;2023-06-22T10:25:33;17.80;99.90
23715;DHT22;12036;50.858;4.472;2023-06-22T10:27:59;17.80;99.90
23715;DHT22;12036;50.858;4.472;2023-06-22T10:30:24;17.90;99.90
23715;DHT22;12036;50.858;4.472;2023-06-22T10:32:50;17.90;99.90
23715;DHT22;12036;50.858;4.472;2023-06-22T10:35:16;17.90;99.90
23715;DHT22;12036;50.858;4.472;2023-06-22T10:37:45;18.00;99.90
23715;DHT22;12036;50.858;4.472;2023-06-22T10:40:13;18.00;99.90
23715;DHT22;12036;50.858;4.472;2023-06-22T10:42:39;18.00;99.90
23715;DHT22;12036;50.858;4.472;2023-06-22T10:45:05;18.10;99.90
23715;DHT22;12036;50.858;4.472;2023-06-22T10:47:31;18.10;99.90
23715;DHT22;12036;50.858;4.472;2023-06-22T10:49:56;18.20;99.90
23715;DHT22;12036;50.858;4.472;2023-06-22T10:52:22;18.20;99.90
23715;DHT22;12036;50.858;4.472;2023-06-22T10:54:48;18.10;99.90
23715;DHT22;12036;50.858;4.472;2023-06-22T10:57:13;18.10;99.90
23715;DHT22;12036;50.858;4.472;2023-06-22T10:59:39;18.10;99.90
23715;DHT22;12036;50.858;4.472;2023-06-22T11:02:05;18.10;99.90
23715;DHT22;12036;50.858;4.472;2023-06-22T11:04:31;18.20;99.90
23715;DHT22;12036;50.858;4.472;2023-06-22T11:06:56;18.10;99.90
23715;DHT22;12036;50.858;4.472;2023-06-22T11:09:22;18.20;99.90
23715;DHT22;12036;50.858;4.472;2023-06-22T11:11:48;18.20;99.90
23715;DHT22;12036;50.858;4.472;2023-06-22T11:14:15;18.30;99.90
23715;DHT22;12036;50.858;4.472;2023-06-22T11:16:40;18.30;99.90
23715;DHT22;12036;50.858;4.472;2023-06-22T11:19:06;18.40;99.90
23715;DHT22;12036;50.858;4.472;2023-06-22T11:21:32;18.40;99.90
23715;DHT22;12036;50.858;4.472;2023-06-22T11:23:58;18.40;99.90
23715;DHT22;12036;50.858;4.472;2023-06-22T11:26:25;18.40;99.90
23715;DHT22;12036;50.858;4.472;2023-06-22T11:28:53;18.50;99.90
23715;DHT22;12036;50.858;4.472;2023-06-22T11:31:18;18.50;99.90
23715;DHT22;12036;50.858;4.472;2023-06-22T11:33:44;18.50;99.90
23715;DHT22;12036;50.858;4.472;2023-06-22T11:36:14;18.50;99.90
23715;DHT22;12036;50.858;4.472;2023-06-22T11:38:40;18.60;99.90
23715;DHT22;12036;50.858;4.472;2023-06-22T11:41:09;18.60;99.90
23715;DHT22;12036;50.858;4.472;2023-06-22T11:43:35;18.60;99.90
23715;DHT22;12036;50.858;4.472;2023-06-22T11:46:02;18.50;99.90
23715;DHT22;12036;50.858;4.472;2023-06-22T11:48:28;18.40;99.90
23715;DHT22;12036;50.858;4.472;2023-06-22T11:50:54;18.40;99.90
23715;DHT22;12036;50.858;4.472;2023-06-22T11:53:21;18.50;99.90
23715;DHT22;12036;50.858;4.472;2023-06-22T11:55:47;18.50;99.90
23715;DHT22;12036;50.858;4.472;2023-06-22T11:58:14;18.50;99.90
23715;DHT22;12036;50.858;4.472;2023-06-22T12:00:40;18.40;99.90
23715;DHT22;12036;50.858;4.472;2023-06-22T12:03:05;18.40;99.90
23715;DHT22;12036;50.858;4.472;2023-06-22T12:05:31;18.40;99.90
23715;DHT22;12036;50.858;4.472;2023-06-22T12:07:57;18.30;99.90
23715;DHT22;12036;50.858;4.472;2023-06-22T12:10:22;18.40;99.90
23715;DHT22;12036;50.858;4.472;2023-06-22T12:12:48;18.40;99.90
23715;DHT22;12036;50.858;4.472;2023-06-22T12:15:14;18.40;99.90
23715;DHT22;12036;50.858;4.472;2023-06-22T12:17:40;18.30;99.90
23715;DHT22;12036;50.858;4.472;2023-06-22T12:20:06;18.30;99.90
23715;DHT22;12036;50.858;4.472;2023-06-22T12:22:33;18.30;99.90
23715;DHT22;12036;50.858;4.472;2023-06-22T12:24:58;18.30;99.90
23715;DHT22;12036;50.858;4.472;2023-06-22T12:27:24;18.30;99.90
23715;DHT22;12036;50.858;4.472;2023-06-22T12:29:50;18.30;99.90
23715;DHT22;12036;50.858;4.472;2023-06-22T12:32:16;18.30;99.90
23715;DHT22;12036;50.858;4.472;2023-06-22T12:34:43;18.30;99.90
23715;DHT22;12036;50.858;4.472;2023-06-22T12:37:08;18.20;99.90
23715;DHT22;12036;50.858;4.472;2023-06-22T12:39:34;18.20;99.90
23715;DHT22;12036;50.858;4.472;2023-06-22T12:42:00;18.20;99.90
23715;DHT22;12036;50.858;4.472;2023-06-22T12:44:26;18.20;99.90
23715;DHT22;12036;50.858;4.472;2023-06-22T12:46:51;18.20;99.90
23715;DHT22;12036;50.858;4.472;2023-06-22T12:49:17;18.30;99.90
23715;DHT22;12036;50.858;4.472;2023-06-22T12:51:43;18.20;99.90
23715;DHT22;12036;50.858;4.472;2023-06-22T12:54:10;18.20;99.90
23715;DHT22;12036;50.858;4.472;2023-06-22T12:56:36;18.20;99.90
23715;DHT22;12036;50.858;4.472;2023-06-22T12:59:02;18.20;99.90
23715;DHT22;12036;50.858;4.472;2023-06-22T13:01:28;18.20;99.90
23715;DHT22;12036;50.858;4.472;2023-06-22T13:03:54;18.30;99.90
23715;DHT22;12036;50.858;4.472;2023-06-22T13:06:20;18.30;99.90
23715;DHT22;12036;50.858;4.472;2023-06-22T13:08:45;18.30;99.90
23715;DHT22;12036;50.858;4.472;2023-06-22T13:11:11;18.30;99.90
23715;DHT22;12036;50.858;4.472;2023-06-22T13:13:37;18.30;99.90
23715;DHT22;12036;50.858;4.472;2023-06-22T13:16:02;18.30;99.90
23715;DHT22;12036;50.858;4.472;2023-06-22T13:18:28;18.40;99.90
23715;DHT22;12036;50.858;4.472;2023-06-22T13:20:54;18.30;99.90
23715;DHT22;12036;50.858;4.472;2023-06-22T13:23:20;18.40;99.90
23715;DHT22;12036;50.858;4.472;2023-06-22T13:25:46;18.20;99.90
23715;DHT22;12036;50.858;4.472;2023-06-22T13:28:12;18.30;99.90
23715;DHT22;12036;50.858;4.472;2023-06-22T13:30:40;18.30;99.90
23715;DHT22;12036;50.858;4.472;2023-06-22T13:33:06;18.30;99.90
23715;DHT22;12036;50.858;4.472;2023-06-22T13:35:31;18.40;99.90
23715;DHT22;12036;50.858;4.472;2023-06-22T13:37:57;18.40;99.90
23715;DHT22;12036;50.858;4.472;2023-06-22T13:40:23;18.50;99.90
23715;DHT22;12036;50.858;4.472;2023-06-22T13:42:48;18.40;99.90
23715;DHT22;12036;50.858;4.472;2023-06-22T13:45:14;18.50;99.90
23715;DHT22;12036;50.858;4.472;2023-06-22T13:47:42;18.50;99.90
23715;DHT22;12036;50.858;4.472;2023-06-22T13:50:08;18.50;99.90
23715;DHT22;12036;50.858;4.472;2023-06-22T13:52:34;18.50;99.90
23715;DHT22;12036;50.858;4.472;2023-06-22T13:55:00;18.50;99.90
23715;DHT22;12036;50.858;4.472;2023-06-22T13:57:25;18.40;99.90
23715;DHT22;12036;50.858;4.472;2023-06-22T13:59:51;18.40;99.90
23715;DHT22;12036;50.858;4.472;2023-06-22T14:02:17;18.30;99.90
23715;DHT22;12036;50.858;4.472;2023-06-22T14:04:42;18.30;99.90
23715;DHT22;12036;50.858;4.472;2023-06-22T14:07:08;18.20;99.90
23715;DHT22;12036;50.858;4.472;2023-06-22T14:09:33;18.20;99.90
23715;DHT22;12036;50.858;4.472;2023-06-22T14:12:03;18.30;99.90
23715;DHT22;12036;50.858;4.472;2023-06-22T14:14:30;18.40;99.90
23715;DHT22;12036;50.858;4.472;2023-06-22T14:16:56;18.30;99.90
23715;DHT22;12036;50.858;4.472;2023-06-22T14:19:21;18.30;99.90
23715;DHT22;12036;50.858;4.472;2023-06-22T14:21:47;18.30;99.90
23715;DHT22;12036;50.858;4.472;2023-06-22T14:24:13;18.30;99.90
23715;DHT22;12036;50.858;4.472;2023-06-22T14:26:38;18.30;99.90
23715;DHT22;12036;50.858;4.472;2023-06-22T14:29:04;18.30;99.90
23715;DHT22;12036;50.858;4.472;2023-06-22T14:31:30;18.30;99.90
23715;DHT22;12036;50.858;4.472;2023-06-22T14:33:55;18.20;99.90
23715;DHT22;12036;50.858;4.472;2023-06-22T14:36:27;18.20;99.90
23715;DHT22;12036;50.858;4.472;2023-06-22T14:38:53;18.20;99.90
23715;DHT22;12036;50.858;4.472;2023-06-22T14:41:19;18.10;99.90
23715;DHT22;12036;50.858;4.472;2023-06-22T14:43:46;18.10;99.90
23715;DHT22;12036;50.858;4.472;2023-06-22T14:46:12;18.10;99.90
23715;DHT22;12036;50.858;4.472;2023-06-22T14:48:38;18.20;99.90
23715;DHT22;12036;50.858;4.472;2023-06-22T14:51:04;18.20;99.90
23715;DHT22;12036;50.858;4.472;2023-06-22T14:53:29;18.10;99.90
23715;DHT22;12036;50.858;4.472;2023-06-22T14:55:55;18.20;99.90
23715;DHT22;12036;50.858;4.472;2023-06-22T14:58:21;18.20;99.90
23715;DHT22;12036;50.858;4.472;2023-06-22T15:00:47;18.40;99.90
23715;DHT22;12036;50.858;4.472;2023-06-22T15:03:12;18.40;99.90
23715;DHT22;12036;50.858;4.472;2023-06-22T15:05:43;18.40;99.90
23715;DHT22;12036;50.858;4.472;2023-06-22T15:08:09;18.40;99.90
23715;DHT22;12036;50.858;4.472;2023-06-22T15:10:34;18.50;99.90
23715;DHT22;12036;50.858;4.472;2023-06-22T15:13:00;18.50;99.90
23715;DHT22;12036;50.858;4.472;2023-06-22T15:15:26;18.50;99.90
23715;DHT22;12036;50.858;4.472;2023-06-22T15:17:52;18.50;99.90
23715;DHT22;12036;50.858;4.472;2023-06-22T15:20:18;18.50;99.90
23715;DHT22;12036;50.858;4.472;2023-06-22T15:22:43;18.50;99.90
23715;DHT22;12036;50.858;4.472;2023-06-22T15:25:09;18.50;99.90
23715;DHT22;12036;50.858;4.472;2023-06-22T15:27:35;18.60;99.90
23715;DHT22;12036;50.858;4.472;2023-06-22T15:30:01;18.60;99.90
23715;DHT22;12036;50.858;4.472;2023-06-22T15:32:29;18.60;99.90